PortugalFixed distance
Ultra Trail do Marão UTM 60k
23 Mar2024
Distance
60km
Finishers
118104 men14 women
Winning time
7:25:50h
Median pace
5.23km/h
Pace distribution
118 finishers · 3.65–8.07 km/h · mean 5.38
Every finisher ran the same 60 km course, so these paces are directly comparable.
Histogram of finisher pace. 118 finishers ranged from 3.65 to 8.07 kilometres per hour, with a mean of 5.38 and a median of 5.23. The busiest band is 4.5 to 5.0 kilometres per hour, with 26 finishers.
Results
Ranks 51–100 of 118
| Rank | Runner | Time | Pace | Cat. | Placing |
|---|---|---|---|---|---|
| 51 | 11:00:45h | 5.45 | M45 | 47th M · 12th M45 | |
| 52 | 11:02:18h | 5.44 | M40 | 48th M · 16th M40 | |
| 53 | 11:03:18h | 5.43 | M40 | 49th M · 17th M40 | |
| 54 | 11:04:00h | 5.42 | M45 | 50th M · 13th M45 | |
| 55 | 11:08:19h | 5.39 | M45 | 51st M · 14th M45 | |
| 56 | 11:10:15h | 5.37 | M65 | 52nd M · 1st M65 | |
| 57 | 11:10:29h | 5.37 | M45 | 53rd M · 15th M45 | |
| 58 | 11:26:35h | 5.24 | M40 | 54th M · 18th M40 | |
| 59 | 11:27:46h | 5.23 | M40 | 55th M · 19th M40 | |
| 60 | 11:28:36h | 5.23 | M55 | 56th M · 2nd M55 | |
| 61 | 11:33:00h | 5.20 | M23 | 57th M · 8th M23 | |
| 62 | 11:33:54h | 5.19 | M40 | 58th M · 20th M40 | |
| 63 | 11:34:56h | 5.18 | M40 | 59th M · 21st M40 | |
| 64 | 11:43:35h | 5.12 | M40 | 60th M · 22nd M40 | |
| 65 | 11:48:38h | 5.08 | W40 | 5th F · 4th W40 | |
| 66 | 11:49:39h | 5.07 | W35 | 6th F · 2nd W35 | |
| 67 | 11:50:51h | 5.06 | M40 | 61st M · 23rd M40 | |
| 68 | 11:53:38h | 5.04 | M40 | 62nd M · 24th M40 | |
| 69 | 11:55:39h | 5.03 | M45 | 63rd M · 16th M45 | |
| 70 | 11:56:11h | 5.03 | M55 | 64th M · 3rd M55 | |
| 71 | 12:04:01h | 4.97 | M55 | 65th M · 4th M55 | |
| 72 | 12:04:46h | 4.97 | M23 | 66th M · 9th M23 | |
| 73 | 12:05:10h | 4.96 | W40 | 7th F · 5th W40 | |
| 74 | 12:10:46h | 4.93 | M23 | 67th M · 10th M23 | |
| 75 | 12:11:02h | 4.92 | M23 | 68th M · 11th M23 | |
| 76 | 12:11:30h | 4.92 | M23 | 69th M · 12th M23 | |
| 77 | 12:15:43h | 4.89 | M45 | 70th M · 17th M45 | |
| 78 | 12:20:30h | 4.86 | M40 | 71st M · 25th M40 | |
| 79 | 12:23:48h | 4.84 | M45 | 72nd M · 18th M45 | |
| 80 | 12:28:21h | 4.81 | W23 | 8th F · 1st W23 | |
| 81 | 12:28:23h | 4.81 | M40 | 73rd M · 26th M40 | |
| 82 | 12:28:36h | 4.81 | M45 | 74th M · 19th M45 | |
| 83 | 12:33:35h | 4.78 | W50 | 9th F · 1st W50 | |
| 84 | 12:35:40h | 4.76 | W55 | 10th F · 1st W55 | |
| 85 | 12:49:37h | 4.68 | W40 | 11th F · 6th W40 | |
| 86 | 12:50:12h | 4.67 | M40 | 75th M · 27th M40 | |
| 87 | 12:52:50h | 4.66 | M23 | 76th M · 13th M23 | |
| 88 | 12:54:17h | 4.65 | M50 | 77th M · 6th M50 | |
| 89 | 12:55:05h | 4.64 | M45 | 78th M · 20th M45 | |
| 90 | 12:56:14h | 4.64 | M50 | 79th M · 7th M50 | |
| 91 | 12:58:18h | 4.63 | M40 | 80th M · 28th M40 | |
| 92 | 13:02:58h | 4.60 | M45 | 81st M · 21st M45 | |
| 93 | 13:03:07h | 4.60 | M40 | 82nd M · 29th M40 | |
| 94 | 13:04:09h | 4.59 | W45 | 12th F · 1st W45 | |
| 95 | 13:06:15h | 4.58 | M40 | 83rd M · 30th M40 | |
| 96 | 13:09:21h | 4.56 | M40 | 84th M · 31st M40 | |
| 97 | 13:23:57h | 4.48 | M35 | 85th M · 8th M35 | |
| 98 | 13:29:21h | 4.45 | M50 | 86th M · 8th M50 | |
| 99 | 13:31:11h | 4.44 | M55 | 87th M · 5th M55 | |
| 100 | 13:31:14h | 4.44 | M35 | 88th M · 9th M35 |
- 5147th M · 12th M45Time11:00:45hPace5.45Cat.M45
- 5248th M · 16th M40Time11:02:18hPace5.44Cat.M40
- 5349th M · 17th M40Time11:03:18hPace5.43Cat.M40
- 5450th M · 13th M45Time11:04:00hPace5.42Cat.M45
- 5551st M · 14th M45Time11:08:19hPace5.39Cat.M45
- 5652nd M · 1st M65Time11:10:15hPace5.37Cat.M65
- 5753rd M · 15th M45Time11:10:29hPace5.37Cat.M45
- 5854th M · 18th M40Time11:26:35hPace5.24Cat.M40
- 5955th M · 19th M40Time11:27:46hPace5.23Cat.M40
- 6056th M · 2nd M55Time11:28:36hPace5.23Cat.M55
- 6157th M · 8th M23Time11:33:00hPace5.20Cat.M23
- 6258th M · 20th M40Time11:33:54hPace5.19Cat.M40
- 6359th M · 21st M40Time11:34:56hPace5.18Cat.M40
- 6460th M · 22nd M40Time11:43:35hPace5.12Cat.M40
- 655th F · 4th W40Time11:48:38hPace5.08Cat.W40
- 666th F · 2nd W35Time11:49:39hPace5.07Cat.W35
- 6761st M · 23rd M40Time11:50:51hPace5.06Cat.M40
- 6862nd M · 24th M40Time11:53:38hPace5.04Cat.M40
- 6963rd M · 16th M45Time11:55:39hPace5.03Cat.M45
- 7064th M · 3rd M55Time11:56:11hPace5.03Cat.M55
- 7165th M · 4th M55Time12:04:01hPace4.97Cat.M55
- 7266th M · 9th M23Time12:04:46hPace4.97Cat.M23
- 737th F · 5th W40Time12:05:10hPace4.96Cat.W40
- 7467th M · 10th M23Time12:10:46hPace4.93Cat.M23
- 7568th M · 11th M23Time12:11:02hPace4.92Cat.M23
- 7669th M · 12th M23Time12:11:30hPace4.92Cat.M23
- 7770th M · 17th M45Time12:15:43hPace4.89Cat.M45
- 7871st M · 25th M40Time12:20:30hPace4.86Cat.M40
- 7972nd M · 18th M45Time12:23:48hPace4.84Cat.M45
- 808th F · 1st W23Time12:28:21hPace4.81Cat.W23
- 8173rd M · 26th M40Time12:28:23hPace4.81Cat.M40
- 8274th M · 19th M45Time12:28:36hPace4.81Cat.M45
- 839th F · 1st W50Time12:33:35hPace4.78Cat.W50
- 8410th F · 1st W55Time12:35:40hPace4.76Cat.W55
- 8511th F · 6th W40Time12:49:37hPace4.68Cat.W40
- 8675th M · 27th M40Time12:50:12hPace4.67Cat.M40
- 8776th M · 13th M23Time12:52:50hPace4.66Cat.M23
- 8877th M · 6th M50Time12:54:17hPace4.65Cat.M50
- 8978th M · 20th M45Time12:55:05hPace4.64Cat.M45
- 9079th M · 7th M50Time12:56:14hPace4.64Cat.M50
- 9180th M · 28th M40Time12:58:18hPace4.63Cat.M40
- 9281st M · 21st M45Time13:02:58hPace4.60Cat.M45
- 9382nd M · 29th M40Time13:03:07hPace4.60Cat.M40
- 9412th F · 1st W45Time13:04:09hPace4.59Cat.W45
- 9583rd M · 30th M40Time13:06:15hPace4.58Cat.M40
- 9684th M · 31st M40Time13:09:21hPace4.56Cat.M40
- 9785th M · 8th M35Time13:23:57hPace4.48Cat.M35
- 9886th M · 8th M50Time13:29:21hPace4.45Cat.M50
- 9987th M · 5th M55Time13:31:11hPace4.44Cat.M55
- 10088th M · 9th M35Time13:31:14hPace4.44Cat.M35
Showing ranks 51–100 of 118